Time;durP1;ratioP1;P1;durP2;ratioP2;P2;SDS_P1;SDS_P2;PMS_P1;PMS_P2;Temp;Humidity;BMP_temperature;BMP_pressure;BME280_temperature;BME280_humidity;BME280_pressure;Samples;Min_cycle;Max_cycle;Signal;HPM_P1;HPM_P2
2021/12/28 00:01:24;;;;;;;95.20;23.85;;;6.50;99.90;;;;;;4978763;28;20032;-82
2021/12/28 00:03:51;;;;;;;88.38;22.58;;;6.60;99.90;;;;;;4978572;28;20041;-83
2021/12/28 00:06:17;;;;;;;85.50;21.23;;;6.60;99.90;;;;;;4994667;28;20030;-83
2021/12/28 00:09:20;;;;;;;88.53;23.85;;;6.60;99.90;;;;;;4994696;28;20145;-83
2021/12/28 00:12:02;;;;;;;94.70;25.83;;;6.60;99.90;;;;;;4978345;28;20099;-82
2021/12/28 00:14:35;;;;;;;85.43;25.35;;;6.60;99.90;;;;;;4978350;28;20410;-84
2021/12/28 00:19:45;;;;;;;96.13;23.45;;;6.70;99.90;;;;;;4978248;28;20046;-83
2021/12/28 00:22:10;;;;;;;89.63;22.50;;;6.60;99.90;;;;;;4978360;28;20402;-83
2021/12/28 00:24:36;;;;;;;102.05;23.40;;;6.70;99.90;;;;;;4978254;28;20034;-83
2021/12/28 00:27:04;;;;;;;86.60;26.48;;;6.60;99.90;;;;;;4978261;28;20470;-84
2021/12/28 00:29:30;;;;;;;85.15;23.90;;;6.60;99.90;;;;;;4978587;28;20029;-83
2021/12/28 00:31:56;;;;;;;117.63;31.40;;;6.70;99.90;;;;;;4978214;28;20063;-84
2021/12/28 00:34:22;;;;;;;117.43;30.52;;;6.60;99.90;;;;;;4977065;28;20031;-84
2021/12/28 00:36:47;;;;;;;109.80;27.17;;;6.60;99.90;;;;;;4978438;28;20410;-84
2021/12/28 00:39:13;;;;;;;73.10;26.10;;;6.70;99.90;;;;;;4995465;28;20034;-84
2021/12/28 00:41:39;;;;;;;78.85;23.98;;;6.70;99.90;;;;;;4978025;28;20697;-84
2021/12/28 00:44:04;;;;;;;95.65;28.02;;;6.60;99.90;;;;;;4961698;28;20056;-83
2021/12/28 00:46:30;;;;;;;149.15;31.98;;;6.60;99.90;;;;;;4977667;28;20030;-83
2021/12/28 00:48:56;;;;;;;446.40;43.10;;;6.60;99.90;;;;;;4977140;28;20030;-83
2021/12/28 00:51:22;;;;;;;1150.07;79.32;;;6.60;99.90;;;;;;4977543;28;20463;-83
2021/12/28 00:53:47;;;;;;;818.10;54.15;;;6.50;99.90;;;;;;4977725;28;20106;-83
2021/12/28 00:56:13;;;;;;;468.60;38.67;;;6.50;99.90;;;;;;4961581;28;20038;-83
2021/12/28 00:58:39;;;;;;;376.38;35.28;;;6.40;99.90;;;;;;4977589;28;20049;-83
2021/12/28 01:01:05;;;;;;;538.50;38.50;;;6.50;99.90;;;;;;4977622;28;20084;-83
2021/12/28 01:03:34;;;;;;;317.80;32.13;;;6.40;99.90;;;;;;4977385;28;20034;-84
2021/12/28 01:06:01;;;;;;;154.57;27.50;;;6.40;99.90;;;;;;4977329;28;20039;-84
2021/12/28 01:08:27;;;;;;;95.18;22.95;;;6.40;99.90;;;;;;4977393;28;20027;-83
2021/12/28 01:10:54;;;;;;;431.73;36.38;;;6.40;99.90;;;;;;4977522;28;20046;-83
2021/12/28 01:13:21;;;;;;;396.10;34.58;;;6.30;99.90;;;;;;4977147;28;20026;-83
2021/12/28 01:15:49;;;;;;;210.95;25.73;;;6.30;99.90;;;;;;4977153;28;20437;-83
2021/12/28 01:18:14;;;;;;;347.45;31.67;;;6.30;99.90;;;;;;4977501;28;20824;-83
2021/12/28 01:20:44;;;;;;;126.05;22.42;;;6.20;99.90;;;;;;4979409;28;20031;-83
2021/12/28 01:23:11;;;;;;;151.93;22.52;;;6.20;99.90;;;;;;4977867;28;20038;-84
2021/12/28 01:25:37;;;;;;;558.90;36.13;;;6.30;99.90;;;;;;4995001;28;20038;-82
2021/12/28 01:28:04;;;;;;;782.58;45.78;;;6.20;99.90;;;;;;4976862;28;20088;-82
2021/12/28 01:30:30;;;;;;;622.20;38.22;;;6.10;99.90;;;;;;4976905;28;20022;-82
2021/12/28 01:32:59;;;;;;;762.80;43.13;;;6.10;99.90;;;;;;4976926;28;20038;-82
2021/12/28 01:35:25;;;;;;;735.92;43.20;;;6.00;99.90;;;;;;4977214;28;20038;-82
2021/12/28 01:37:51;;;;;;;437.38;31.85;;;6.00;99.90;;;;;;4976802;28;20478;-82
2021/12/28 01:40:23;;;;;;;816.22;53.88;;;6.00;99.90;;;;;;4976823;28;20129;-82
2021/12/28 01:42:56;;;;;;;566.30;43.45;;;5.90;99.90;;;;;;4977039;28;20034;-83
2021/12/28 01:45:43;;;;;;;842.13;54.58;;;5.90;99.90;;;;;;4992831;28;20121;-82
2021/12/28 01:48:11;;;;;;;697.28;52.28;;;5.90;99.90;;;;;;4961760;28;20034;-82
2021/12/28 01:50:37;;;;;;;634.30;42.95;;;5.80;99.90;;;;;;4977771;28;20381;-82
2021/12/28 01:53:05;;;;;;;700.03;54.40;;;5.80;99.90;;;;;;4977326;28;20041;-82
2021/12/28 01:55:33;;;;;;;559.80;45.78;;;5.80;99.90;;;;;;4961375;28;20038;-82
2021/12/28 01:57:59;;;;;;;243.80;33.55;;;5.80;99.90;;;;;;4961367;28;20041;-82
2021/12/28 02:00:26;;;;;;;114.38;27.63;;;5.70;99.90;;;;;;4961427;28;20030;-82
2021/12/28 02:02:52;;;;;;;88.28;27.05;;;5.70;99.90;;;;;;4977313;28;20475;-82
2021/12/28 02:05:18;;;;;;;176.45;30.55;;;5.70;99.90;;;;;;4977030;28;20176;-82
2021/12/28 02:07:44;;;;;;;177.98;30.40;;;5.60;99.90;;;;;;4976998;28;20066;-83
2021/12/28 02:10:10;;;;;;;137.07;28.92;;;5.70;99.90;;;;;;4977279;28;20054;-82
2021/12/28 02:12:36;;;;;;;249.48;34.85;;;5.60;99.90;;;;;;4976600;28;20038;-82
2021/12/28 02:15:06;;;;;;;167.13;35.28;;;5.60;99.90;;;;;;4977184;28;20030;-82
2021/12/28 02:17:34;;;;;;;130.95;30.80;;;5.50;99.90;;;;;;4994671;28;20044;-82
2021/12/28 02:20:14;;;;;;;107.88;28.30;;;5.50;99.90;;;;;;4977204;28;20117;-82
2021/12/28 02:22:41;;;;;;;454.20;46.27;;;5.50;99.90;;;;;;4961422;28;20031;-82
2021/12/28 02:25:07;;;;;;;415.80;45.33;;;5.40;99.90;;;;;;4994570;28;20144;-82
2021/12/28 02:27:34;;;;;;;180.70;31.73;;;5.40;99.90;;;;;;4977572;28;20135;-82
2021/12/28 02:30:01;;;;;;;188.38;32.05;;;5.30;99.90;;;;;;4977521;28;20026;-82
2021/12/28 02:32:28;;;;;;;162.55;32.67;;;5.40;99.90;;;;;;4977369;28;20085;-82
2021/12/28 02:34:55;;;;;;;238.93;37.22;;;5.40;99.90;;;;;;4977091;28;20073;-82
2021/12/28 02:37:22;;;;;;;127.63;27.08;;;5.30;99.90;;;;;;4977175;28;20414;-82
2021/12/28 02:39:48;;;;;;;129.95;32.20;;;5.30;99.90;;;;;;4976160;28;20030;-82
2021/12/28 02:42:23;;;;;;;81.90;26.35;;;5.20;99.90;;;;;;4976098;28;20037;-83
2021/12/28 02:45:01;;;;;;;99.35;29.00;;;5.30;99.90;;;;;;4959575;28;20095;-82
2021/12/28 02:47:28;;;;;;;98.53;27.45;;;5.20;99.90;;;;;;4992175;28;20034;-82
2021/12/28 02:49:54;;;;;;;129.63;27.63;;;5.10;99.90;;;;;;4991971;28;20034;-82
2021/12/28 02:52:20;;;;;;;99.93;27.13;;;5.10;99.90;;;;;;4976093;28;20097;-83
2021/12/28 02:54:46;;;;;;;79.18;25.48;;;5.10;99.90;;;;;;4975865;28;20037;-83
2021/12/28 02:57:12;;;;;;;107.47;28.70;;;5.00;99.90;;;;;;4994428;28;20041;-82
2021/12/28 02:59:49;;;;;;;88.43;24.88;;;5.00;99.90;;;;;;4979518;28;20034;-82
2021/12/28 03:02:15;;;;;;;104.20;27.08;;;5.00;99.90;;;;;;4997248;28;20037;-82
2021/12/28 03:04:41;;;;;;;79.05;22.30;;;5.00;99.90;;;;;;4979455;28;20109;-82
2021/12/28 03:07:07;;;;;;;63.13;18.98;;;5.00;99.90;;;;;;4997035;28;20550;-82
2021/12/28 03:09:33;;;;;;;61.13;19.35;;;5.10;99.90;;;;;;4995569;28;20164;-82
2021/12/28 03:11:59;;;;;;;66.15;18.80;;;5.10;99.90;;;;;;4995551;28;20113;-82
2021/12/28 03:14:25;;;;;;;56.50;16.77;;;5.10;99.90;;;;;;4995094;28;20045;-82
2021/12/28 03:16:51;;;;;;;66.75;17.60;;;5.10;99.90;;;;;;4979203;28;20034;-82
2021/12/28 03:19:16;;;;;;;68.32;17.27;;;5.20;99.90;;;;;;4979214;28;20656;-82
2021/12/28 03:22:00;;;;;;;51.10;14.70;;;5.20;99.90;;;;;;4979227;28;20030;-82
2021/12/28 03:24:27;;;;;;;53.88;17.67;;;5.20;99.90;;;;;;4978817;28;20038;-82
2021/12/28 03:26:53;;;;;;;50.63;16.17;;;5.30;99.90;;;;;;4979252;28;20421;-82
2021/12/28 03:29:20;;;;;;;43.10;15.57;;;5.20;99.90;;;;;;4996504;28;20073;-82
2021/12/28 03:31:47;;;;;;;52.63;15.27;;;5.20;99.90;;;;;;4995314;28;20026;-82
2021/12/28 03:34:13;;;;;;;57.60;16.08;;;5.10;99.90;;;;;;4978944;28;20037;-82
2021/12/28 03:36:39;;;;;;;53.88;13.63;;;5.10;99.90;;;;;;4978416;28;20038;-82
2021/12/28 03:39:05;;;;;;;52.33;14.80;;;5.00;99.90;;;;;;4978784;28;20100;-82
2021/12/28 03:41:31;;;;;;;43.67;12.13;;;5.00;99.90;;;;;;4978850;28;20034;-82
2021/12/28 03:43:59;;;;;;;49.20;12.20;;;5.00;99.90;;;;;;4978563;28;20035;-82
2021/12/28 03:46:26;;;;;;;43.90;12.88;;;5.00;99.90;;;;;;4978399;28;20375;-82
2021/12/28 03:48:53;;;;;;;49.33;13.80;;;5.00;99.90;;;;;;4994517;28;20034;-82
2021/12/28 03:51:19;;;;;;;55.10;16.85;;;5.10;99.90;;;;;;4978191;28;20030;-82
2021/12/28 03:53:46;;;;;;;37.70;11.02;;;5.10;99.90;;;;;;4994059;28;20761;-81
2021/12/28 03:56:12;;;;;;;61.20;12.50;;;5.10;99.90;;;;;;4995618;28;20107;-82
2021/12/28 03:58:39;;;;;;;52.80;12.68;;;5.20;99.90;;;;;;4978361;28;20390;-82
2021/12/28 04:01:09;;;;;;;50.85;11.35;;;5.20;99.90;;;;;;4978654;28;20097;-82
2021/12/28 04:03:34;;;;;;;48.58;11.57;;;5.20;99.90;;;;;;4978187;28;20509;-82
2021/12/28 04:06:07;;;;;;;50.00;11.75;;;5.20;99.90;;;;;;4978420;28;20030;-82
2021/12/28 04:08:48;;;;;;;58.97;11.10;;;5.20;99.90;;;;;;4978267;28;20042;-82
2021/12/28 04:11:36;;;;;;;49.83;10.32;;;5.10;99.90;;;;;;4978311;28;20030;-82
2021/12/28 04:14:04;;;;;;;48.70;11.05;;;5.20;99.90;;;;;;4977394;28;20038;-82
2021/12/28 04:16:31;;;;;;;47.35;10.70;;;5.20;99.90;;;;;;4978077;28;20031;-82
2021/12/28 04:18:57;;;;;;;37.33;9.38;;;5.20;99.90;;;;;;4978064;28;20038;-82
2021/12/28 04:21:23;;;;;;;47.45;10.70;;;5.20;99.90;;;;;;4962122;28;20066;-82
2021/12/28 04:23:49;;;;;;;50.92;10.27;;;5.20;99.90;;;;;;4977785;28;20050;-82
2021/12/28 04:26:15;;;;;;;34.05;8.77;;;5.20;99.90;;;;;;4977814;28;20867;-82
2021/12/28 04:28:41;;;;;;;40.17;8.27;;;5.10;99.90;;;;;;4961686;28;20034;-82
2021/12/28 04:31:08;;;;;;;47.05;9.38;;;5.10;99.90;;;;;;5010279;28;20030;-82
2021/12/28 04:33:37;;;;;;;30.80;7.93;;;5.20;99.90;;;;;;4993764;28;20030;-82
2021/12/28 04:36:08;;;;;;;38.90;8.25;;;5.20;99.90;;;;;;4961158;28;20125;-82
2021/12/28 04:38:35;;;;;;;38.25;8.40;;;5.20;99.90;;;;;;4961288;28;20030;-81
2021/12/28 04:41:00;;;;;;;50.53;8.82;;;5.20;99.90;;;;;;4994761;28;20030;-82
2021/12/28 04:43:26;;;;;;;52.70;9.02;;;5.20;99.90;;;;;;4993016;28;20027;-82
2021/12/28 04:45:52;;;;;;;52.53;8.18;;;5.20;99.90;;;;;;4960786;28;20057;-82
2021/12/28 04:48:17;;;;;;;49.85;9.95;;;5.20;99.90;;;;;;4961253;28;20486;-83
2021/12/28 04:50:56;;;;;;;48.25;8.38;;;5.20;99.90;;;;;;4993526;28;20034;-82
2021/12/28 04:53:22;;;;;;;53.00;8.70;;;5.20;99.90;;;;;;5009742;28;20096;-82
2021/12/28 04:55:48;;;;;;;47.53;8.30;;;5.20;99.90;;;;;;5009751;28;20084;-82
2021/12/28 04:58:15;;;;;;;52.80;8.10;;;5.20;99.90;;;;;;4961653;28;20078;-82
2021/12/28 05:00:43;;;;;;;46.67;8.88;;;5.20;99.90;;;;;;4977476;28;20038;-81
2021/12/28 05:03:09;;;;;;;45.83;8.18;;;5.20;99.90;;;;;;4977488;28;20738;-82
2021/12/28 05:05:36;;;;;;;34.10;8.52;;;5.10;99.90;;;;;;4961098;28;20038;-82
2021/12/28 05:08:05;;;;;;;35.03;8.65;;;5.20;99.90;;;;;;5009533;28;20092;-82
2021/12/28 05:10:31;;;;;;;62.38;10.18;;;5.20;99.90;;;;;;5009696;28;20022;-82
2021/12/28 05:12:57;;;;;;;43.15;7.38;;;5.10;99.90;;;;;;4960958;28;20489;-82
2021/12/28 05:15:23;;;;;;;35.53;8.45;;;5.10;99.90;;;;;;4961027;28;20034;-82
2021/12/28 05:17:51;;;;;;;50.25;10.07;;;5.10;99.90;;;;;;4993486;28;20030;-82
2021/12/28 05:20:17;;;;;;;43.17;8.40;;;5.10;99.90;;;;;;4976563;28;20541;-82
2021/12/28 05:22:43;;;;;;;56.20;8.98;;;5.10;99.90;;;;;;4961018;28;20076;-82
2021/12/28 05:25:09;;;;;;;45.33;7.80;;;5.10;99.90;;;;;;4977043;28;20062;-82
2021/12/28 05:27:35;;;;;;;33.60;8.88;;;5.10;99.90;;;;;;4994219;28;20033;-82
2021/12/28 05:30:01;;;;;;;44.20;9.55;;;5.20;99.90;;;;;;4961013;28;20124;-82
2021/12/28 05:32:27;;;;;;;38.53;7.72;;;5.20;99.90;;;;;;4960968;28;20031;-82
2021/12/28 05:34:53;;;;;;;43.83;7.90;;;5.10;99.90;;;;;;4960543;28;20037;-82
2021/12/28 05:37:18;;;;;;;48.60;9.05;;;5.10;99.90;;;;;;4976708;28;20034;-82
2021/12/28 05:39:44;;;;;;;54.65;12.07;;;5.10;99.90;;;;;;4993009;28;20033;-81
2021/12/28 05:42:10;;;;;;;43.80;11.70;;;5.10;99.90;;;;;;4976901;28;20038;-82
2021/12/28 05:44:35;;;;;;;47.70;10.50;;;5.10;99.90;;;;;;4976499;28;20031;-81
2021/12/28 05:47:01;;;;;;;48.05;12.18;;;5.10;99.90;;;;;;4976594;28;20045;-81
2021/12/28 05:49:27;;;;;;;46.03;9.55;;;5.10;99.90;;;;;;4976645;28;20034;-81
2021/12/28 05:51:53;;;;;;;38.30;10.93;;;5.10;99.90;;;;;;4993946;28;20041;-81
2021/12/28 05:54:19;;;;;;;47.38;13.02;;;5.10;99.90;;;;;;4976391;28;20041;-82
2021/12/28 05:56:45;;;;;;;51.15;12.55;;;5.10;99.90;;;;;;4960337;28;20478;-81
2021/12/28 05:59:11;;;;;;;50.83;12.88;;;5.10;99.90;;;;;;4976664;28;20044;-82
2021/12/28 06:01:37;;;;;;;46.58;12.32;;;5.10;99.90;;;;;;4976406;28;20038;-81
2021/12/28 06:04:03;;;;;;;55.40;14.75;;;5.10;99.90;;;;;;4976387;28;20030;-82
2021/12/28 06:06:29;;;;;;;57.15;16.60;;;5.10;99.90;;;;;;4976448;28;20049;-82
2021/12/28 06:08:55;;;;;;;49.10;15.98;;;5.10;99.90;;;;;;4976699;28;20041;-82
2021/12/28 06:11:21;;;;;;;42.67;14.35;;;5.10;99.90;;;;;;4976502;28;20465;-82
2021/12/28 06:13:47;;;;;;;55.05;16.80;;;5.10;99.90;;;;;;4992223;28;20389;-82
2021/12/28 06:16:14;;;;;;;59.38;17.55;;;5.10;99.90;;;;;;4976437;28;20497;-82
2021/12/28 06:18:40;;;;;;;55.53;15.63;;;5.10;99.90;;;;;;4976457;28;20039;-82
2021/12/28 06:21:06;;;;;;;42.97;14.65;;;5.10;99.90;;;;;;4976251;28;20116;-82
2021/12/28 06:23:32;;;;;;;56.95;16.35;;;5.10;99.90;;;;;;4976363;28;20498;-82
2021/12/28 06:25:58;;;;;;;58.13;16.55;;;5.10;99.90;;;;;;4976379;28;20030;-82
2021/12/28 06:28:23;;;;;;;60.55;17.20;;;5.10;99.90;;;;;;4975990;28;20398;-82
2021/12/28 06:30:49;;;;;;;58.08;17.15;;;5.10;99.90;;;;;;4976196;28;20030;-82
2021/12/28 06:33:15;;;;;;;55.80;14.68;;;5.10;99.90;;;;;;4996053;28;20031;-82
2021/12/28 06:35:42;;;;;;;42.28;14.70;;;5.20;99.90;;;;;;4997038;28;20057;-82
2021/12/28 06:38:08;;;;;;;33.92;13.77;;;5.20;99.90;;;;;;4979572;28;20069;-82
2021/12/28 06:40:33;;;;;;;49.25;15.40;;;5.20;99.90;;;;;;4979706;28;20054;-82
2021/12/28 06:42:59;;;;;;;97.95;17.33;;;5.20;99.90;;;;;;4979784;28;20088;-82
2021/12/28 06:45:26;;;;;;;185.20;22.65;;;5.20;99.90;;;;;;4979657;28;20049;-82
2021/12/28 06:47:51;;;;;;;242.15;28.95;;;5.10;99.90;;;;;;4979932;28;20030;-81
2021/12/28 06:50:17;;;;;;;86.25;23.48;;;5.10;99.90;;;;;;4979784;28;20037;-82
2021/12/28 06:52:43;;;;;;;185.20;31.45;;;5.10;99.90;;;;;;4979846;28;20035;-82
2021/12/28 06:55:10;;;;;;;156.35;36.08;;;5.20;99.90;;;;;;4979479;28;20076;-82
2021/12/28 06:57:36;;;;;;;188.07;32.03;;;5.20;99.90;;;;;;4978615;28;20090;-82
2021/12/28 07:00:06;;;;;;;469.17;40.95;;;5.20;99.90;;;;;;4997032;28;20031;-82
2021/12/28 07:02:32;;;;;;;479.95;38.40;;;5.20;99.90;;;;;;4979624;28;20500;-83
2021/12/28 07:04:57;;;;;;;306.52;26.75;;;5.20;99.90;;;;;;4979320;28;20038;-82
2021/12/28 07:07:23;;;;;;;91.65;15.77;;;5.20;99.90;;;;;;4979470;28;20088;-82
2021/12/28 07:09:49;;;;;;;139.23;17.73;;;5.20;99.90;;;;;;4979326;28;20073;-82
2021/12/28 07:12:14;;;;;;;216.48;24.13;;;5.20;99.90;;;;;;4979373;28;20129;-82
2021/12/28 07:14:40;;;;;;;200.55;19.90;;;5.20;99.90;;;;;;4996454;28;20065;-82
2021/12/28 07:17:06;;;;;;;93.25;12.65;;;5.20;99.90;;;;;;4996626;28;20031;-81
2021/12/28 07:19:32;;;;;;;197.35;16.38;;;5.30;99.90;;;;;;4978932;28;20061;-82
2021/12/28 07:21:57;;;;;;;379.25;23.45;;;5.30;99.90;;;;;;4962819;28;20034;-83
2021/12/28 07:24:23;;;;;;;213.82;17.05;;;5.30;99.90;;;;;;4978856;28;20564;-81
2021/12/28 07:26:49;;;;;;;199.65;16.02;;;5.30;99.90;;;;;;4978818;28;20035;-82
2021/12/28 07:29:15;;;;;;;314.10;20.95;;;5.30;99.90;;;;;;4996362;28;20137;-82
2021/12/28 07:31:41;;;;;;;444.13;29.33;;;5.40;99.90;;;;;;4979529;28;20042;-81
2021/12/28 07:34:07;;;;;;;547.25;35.55;;;5.40;99.90;;;;;;4980701;28;20034;-82
2021/12/28 07:36:33;;;;;;;309.23;23.77;;;5.40;99.90;;;;;;4981870;28;20042;-82
2021/12/28 07:38:59;;;;;;;320.88;27.77;;;5.40;99.90;;;;;;4962862;28;20439;-82
2021/12/28 07:41:25;;;;;;;170.95;19.25;;;5.40;99.90;;;;;;4978995;28;20474;-82
2021/12/28 07:43:51;;;;;;;354.33;24.02;;;5.50;99.90;;;;;;4978327;28;20034;-82
2021/12/28 07:46:17;;;;;;;292.88;26.05;;;5.50;99.90;;;;;;4962684;28;20459;-82
2021/12/28 07:48:43;;;;;;;480.85;35.20;;;5.50;99.90;;;;;;4978692;28;20058;-82
2021/12/28 07:51:09;;;;;;;63.35;15.13;;;5.50;99.90;;;;;;4978351;28;20030;-82
2021/12/28 07:53:35;;;;;;;168.63;19.20;;;5.60;99.90;;;;;;4978464;28;20042;-82
2021/12/28 07:56:01;;;;;;;105.35;16.33;;;5.60;99.90;;;;;;4978749;28;20030;-82
2021/12/28 07:58:27;;;;;;;42.08;14.85;;;5.60;99.90;;;;;;4978713;28;20065;-82
2021/12/28 08:00:53;;;;;;;35.90;15.10;;;5.60;99.90;;;;;;4978500;28;20465;-82
2021/12/28 08:03:19;;;;;;;61.85;13.93;;;5.60;99.90;;;;;;4978078;28;20034;-83
2021/12/28 08:05:45;;;;;;;33.42;13.63;;;5.60;99.90;;;;;;4995587;28;20433;-82
2021/12/28 08:08:12;;;;;;;36.65;15.02;;;5.60;99.90;;;;;;4962152;28;20038;-82
2021/12/28 08:10:38;;;;;;;35.83;14.65;;;5.60;99.90;;;;;;4978371;28;20109;-82
2021/12/28 08:13:04;;;;;;;27.55;12.65;;;5.60;99.90;;;;;;4978071;28;20419;-82
2021/12/28 08:15:29;;;;;;;37.45;14.38;;;5.60;99.90;;;;;;4979570;28;20113;-82
2021/12/28 08:17:55;;;;;;;36.65;14.48;;;5.60;99.90;;;;;;4961805;28;20065;-82
2021/12/28 08:20:21;;;;;;;49.47;15.05;;;5.60;99.90;;;;;;4977927;28;20034;-82
2021/12/28 08:22:48;;;;;;;191.95;23.33;;;5.60;99.90;;;;;;4978077;28;20042;-82
2021/12/28 08:25:17;;;;;;;145.88;19.48;;;5.60;99.90;;;;;;4993963;28;20030;-82
2021/12/28 08:27:43;;;;;;;97.80;19.35;;;5.60;99.90;;;;;;4977692;28;20034;-82
2021/12/28 08:30:11;;;;;;;233.65;25.02;;;5.60;99.90;;;;;;4977926;28;20419;-82
2021/12/28 08:32:38;;;;;;;80.95;15.98;;;5.60;99.90;;;;;;4994082;28;20177;-83
2021/12/28 08:35:05;;;;;;;24.27;11.55;;;5.60;99.90;;;;;;4994637;28;20026;-83
2021/12/28 08:37:31;;;;;;;25.20;10.38;;;5.60;99.90;;;;;;4994823;28;20176;-82
2021/12/28 08:39:57;;;;;;;18.75;9.57;;;5.70;99.90;;;;;;4979864;28;20113;-83
2021/12/28 08:42:23;;;;;;;17.63;9.07;;;5.70;99.90;;;;;;4963763;28;20180;-82
2021/12/28 08:44:49;;;;;;;25.00;8.50;;;5.70;99.90;;;;;;4977785;28;20045;-82
2021/12/28 08:47:15;;;;;;;15.40;7.28;;;5.70;99.90;;;;;;4962079;28;20050;-82
2021/12/28 08:49:41;;;;;;;17.67;8.05;;;5.70;99.90;;;;;;4961826;28;20478;-82
2021/12/28 08:52:07;;;;;;;15.18;7.22;;;5.70;99.90;;;;;;4977865;28;20034;-82
2021/12/28 08:54:34;;;;;;;18.10;8.38;;;5.70;99.90;;;;;;4992997;28;20118;-82
2021/12/28 08:56:59;;;;;;;18.63;9.95;;;5.70;99.90;;;;;;4977662;28;20386;-82
2021/12/28 08:59:25;;;;;;;15.55;7.90;;;5.80;99.90;;;;;;4977531;28;20031;-83
2021/12/28 09:01:51;;;;;;;13.02;6.75;;;5.70;99.90;;;;;;4961622;28;20030;-82
2021/12/28 09:04:18;;;;;;;10.73;6.05;;;5.70;99.90;;;;;;4961378;28;20033;-82
2021/12/28 09:06:47;;;;;;;11.73;5.47;;;5.70;99.90;;;;;;5009900;28;20042;-83
2021/12/28 09:09:13;;;;;;;10.45;5.50;;;5.80;99.90;;;;;;4961119;28;20040;-83
2021/12/28 09:11:40;;;;;;;13.18;7.28;;;5.90;99.90;;;;;;4977465;28;20041;-82
2021/12/28 09:14:06;;;;;;;13.02;6.70;;;5.90;99.90;;;;;;4960995;28;20036;-83
2021/12/28 09:16:31;;;;;;;10.82;4.88;;;5.90;99.90;;;;;;4994741;28;20034;-83
2021/12/28 09:19:03;;;;;;;8.88;4.57;;;5.90;99.90;;;;;;4994795;28;20117;-83
2021/12/28 09:21:28;;;;;;;8.93;5.03;;;6.00;99.90;;;;;;5010042;28;20030;-83
2021/12/28 09:23:54;;;;;;;8.18;4.85;;;6.00;99.90;;;;;;4961342;28;20561;-82
2021/12/28 09:26:20;;;;;;;8.90;4.25;;;6.00;99.90;;;;;;4976995;28;20034;-81
2021/12/28 09:28:46;;;;;;;3.92;2.40;;;6.10;99.90;;;;;;4960396;28;20034;-82
2021/12/28 09:31:12;;;;;;;9.30;3.70;;;6.10;99.90;;;;;;4976895;28;20058;-82
2021/12/28 09:33:38;;;;;;;9.23;3.67;;;6.10;99.90;;;;;;4994445;28;20049;-82
2021/12/28 09:36:07;;;;;;;16.73;4.57;;;6.10;99.90;;;;;;4960991;28;20037;-82
2021/12/28 09:38:33;;;;;;;12.48;3.92;;;6.10;99.90;;;;;;4977349;28;20030;-83
2021/12/28 09:41:00;;;;;;;7.47;4.18;;;6.10;99.90;;;;;;4960983;28;20066;-83
2021/12/28 09:43:26;;;;;;;5.13;2.40;;;6.20;99.90;;;;;;4960446;28;20026;-83
2021/12/28 09:45:52;;;;;;;5.22;3.33;;;6.30;99.90;;;;;;4960586;28;20398;-82
2021/12/28 09:48:18;;;;;;;5.00;2.70;;;6.40;99.90;;;;;;4992691;28;20042;-82
2021/12/28 09:50:44;;;;;;;5.63;3.85;;;6.40;99.90;;;;;;4992561;28;20830;-82
2021/12/28 09:53:13;;;;;;;10.60;7.32;;;6.50;99.90;;;;;;5008922;28;20398;-82
2021/12/28 09:55:39;;;;;;;8.02;5.53;;;6.40;99.90;;;;;;4962341;28;20042;-82
2021/12/28 09:58:05;;;;;;;9.48;6.65;;;6.40;99.90;;;;;;4978426;28;20080;-82
2021/12/28 10:00:31;;;;;;;7.97;4.00;;;6.40;99.90;;;;;;4960402;28;20079;-82
2021/12/28 10:02:56;;;;;;;5.90;3.28;;;6.40;99.90;;;;;;4960517;28;20035;-82
2021/12/28 10:05:25;;;;;;;7.80;4.03;;;6.40;99.90;;;;;;4960243;28;20036;-82
2021/12/28 10:07:57;;;;;;;7.25;3.30;;;6.40;99.90;;;;;;4976707;28;20453;-82
2021/12/28 10:10:29;;;;;;;5.13;3.30;;;6.40;99.90;;;;;;4994022;28;20072;-82
2021/12/28 10:13:02;;;;;;;7.50;3.63;;;6.40;99.90;;;;;;4976914;28;20034;-83
2021/12/28 10:15:35;;;;;;;9.95;4.72;;;6.50;99.90;;;;;;4992501;28;20037;-83
2021/12/28 10:18:06;;;;;;;186.02;12.65;;;6.50;99.90;;;;;;4976424;28;20035;-83
2021/12/28 10:20:44;;;;;;;;;;;6.60;99.90;;;;;;4977192;28;20038;-83
2021/12/28 10:23:14;;;;;;;266.30;17.30;;;6.70;99.90;;;;;;4992469;28;20541;-82
2021/12/28 10:25:55;;;;;;;88.28;10.30;;;6.80;99.90;;;;;;4976375;28;20039;-83
2021/12/28 10:28:24;;;;;;;102.50;13.02;;;6.80;99.90;;;;;;4976429;28;20034;-82
2021/12/28 10:30:54;;;;;;;90.50;15.82;;;6.90;99.90;;;;;;4992677;28;20062;-83
2021/12/28 10:33:28;;;;;;;459.63;33.63;;;6.90;99.90;;;;;;4992513;28;20030;-82
2021/12/28 10:36:00;;;;;;;802.33;53.85;;;7.00;99.90;;;;;;4993408;28;20037;-83
2021/12/28 10:38:29;;;;;;;733.22;49.28;;;7.10;99.90;;;;;;4976237;28;20398;-83
2021/12/28 10:40:59;;;;;;;670.53;45.90;;;7.10;99.90;;;;;;4976581;28;20128;-83
2021/12/28 10:43:29;;;;;;;738.08;49.75;;;7.10;99.90;;;;;;4976263;28;20045;-83
2021/12/28 10:46:01;;;;;;;748.58;56.58;;;7.20;99.90;;;;;;4978345;28;20070;-83
2021/12/28 10:48:45;;;;;;;796.53;56.80;;;7.20;99.90;;;;;;4976231;28;20045;-84
2021/12/28 10:51:22;;;;;;;774.03;53.67;;;7.30;99.90;;;;;;4976188;28;20536;-83
2021/12/28 10:54:12;;;;;;;541.95;47.88;;;7.30;99.90;;;;;;4975971;28;20034;-84
2021/12/28 10:56:50;;;;;;;659.13;56.70;;;7.30;99.90;;;;;;4960187;28;20026;-83
2021/12/28 10:59:21;;;;;;;485.88;40.85;;;7.30;99.90;;;;;;4978353;28;20041;-83
2021/12/28 11:01:48;;;;;;;276.10;29.67;;;7.50;99.90;;;;;;4975802;28;20524;-84
2021/12/28 11:04:14;;;;;;;501.20;43.58;;;7.50;99.90;;;;;;4975811;28;20501;-84
2021/12/28 11:06:41;;;;;;;779.47;59.92;;;7.50;99.90;;;;;;4975417;28;20161;-84
2021/12/28 11:09:13;;;;;;;854.47;62.47;;;7.50;99.90;;;;;;4959742;28;20073;-84
2021/12/28 11:11:40;;;;;;;650.47;47.58;;;7.50;99.90;;;;;;4975752;28;20093;-84
2021/12/28 11:14:19;;;;;;;333.83;31.17;;;7.60;99.90;;;;;;4959806;28;20069;-83
2021/12/28 11:16:55;;;;;;;971.13;79.85;;;7.60;99.90;;;;;;4976035;28;20045;-83
2021/12/28 11:19:29;;;;;;;645.70;48.63;;;7.60;99.90;;;;;;4995922;28;20042;-82
2021/12/28 11:21:59;;;;;;;559.47;47.53;;;7.60;99.90;;;;;;4979461;28;20041;-83
2021/12/28 11:24:33;;;;;;;540.90;41.13;;;7.60;99.90;;;;;;4963086;28;20041;-83
2021/12/28 11:27:00;;;;;;;506.08;36.42;;;7.60;99.90;;;;;;4996798;28;20038;-84
2021/12/28 11:29:37;;;;;;;295.35;30.40;;;7.60;99.90;;;;;;4979292;28;20030;-83
2021/12/28 11:32:06;;;;;;;161.95;20.83;;;7.70;99.90;;;;;;4978672;28;20438;-83
2021/12/28 11:34:38;;;;;;;170.00;19.38;;;7.70;99.90;;;;;;4962263;28;20042;-84
2021/12/28 11:37:27;;;;;;;;;;;7.70;99.90;;;;;;4979252;28;20043;-83
2021/12/28 11:39:56;;;;;;;232.25;21.52;;;7.80;99.90;;;;;;4994791;28;19932;-82
2021/12/28 11:42:23;;;;;;;46.75;10.50;;;7.70;99.90;;;;;;4962777;28;20026;-83
2021/12/28 11:44:54;;;;;;;113.32;15.48;;;7.70;99.90;;;;;;4978243;28;20085;-84
2021/12/28 11:47:22;;;;;;;257.98;25.00;;;7.70;99.90;;;;;;4962875;28;20066;-83
2021/12/28 11:49:49;;;;;;;413.02;33.13;;;7.80;99.90;;;;;;4962410;28;20031;-84
2021/12/28 11:52:18;;;;;;;610.60;46.63;;;7.90;99.90;;;;;;4978540;28;20038;-84
2021/12/28 11:54:47;;;;;;;442.90;34.03;;;7.90;99.90;;;;;;4994487;28;20035;-83
2021/12/28 11:57:21;;;;;;;247.10;22.90;;;7.90;99.90;;;;;;4978625;28;20568;-83
2021/12/28 12:00:09;;;;;;;21.10;11.85;;;7.90;99.90;;;;;;4978840;28;20215;-83
2021/12/28 12:02:49;;;;;;;52.30;13.55;;;8.00;99.90;;;;;;4978784;28;20034;-83
2021/12/28 12:05:17;;;;;;;192.75;22.33;;;7.90;99.90;;;;;;4994575;28;20477;-83
2021/12/28 12:07:44;;;;;;;297.83;26.05;;;7.90;99.90;;;;;;4978372;28;20037;-83
2021/12/28 12:10:13;;;;;;;35.58;13.07;;;7.90;99.90;;;;;;4978493;28;20478;-84
2021/12/28 12:12:53;;;;;;;23.70;11.00;;;7.90;99.90;;;;;;4994179;28;20034;-83
2021/12/28 12:15:21;;;;;;;17.67;10.75;;;7.90;99.90;;;;;;4994457;28;20402;-83
2021/12/28 12:17:47;;;;;;;25.20;14.00;;;8.00;99.90;;;;;;4994298;28;20041;-83
2021/12/28 12:20:27;;;;;;;22.58;13.98;;;7.90;99.90;;;;;;4962146;28;20034;-83
2021/12/28 12:23:12;;;;;;;25.17;16.75;;;7.90;99.90;;;;;;4978190;28;20034;-83
2021/12/28 12:25:57;;;;;;;24.08;16.88;;;8.00;99.90;;;;;;4977984;28;20557;-84
2021/12/28 12:28:32;;;;;;;373.65;139.30;;;8.00;99.90;;;;;;4960735;28;20038;-84
2021/12/28 12:30:58;;;;;;;31.30;20.08;;;8.00;99.90;;;;;;4961479;28;20034;-83
2021/12/28 12:33:50;;;;;;;28.42;18.50;;;8.00;99.90;;;;;;4993865;28;20066;-84
2021/12/28 12:36:37;;;;;;;26.42;16.17;;;8.00;99.90;;;;;;4961988;28;20394;-83
2021/12/28 12:39:05;;;;;;;26.13;16.80;;;8.00;99.90;;;;;;4977728;28;20045;-84
2021/12/28 12:41:47;;;;;;;22.90;17.02;;;8.00;99.90;;;;;;4977941;28;20041;-83
2021/12/28 12:44:37;;;;;;;24.88;16.90;;;8.10;99.90;;;;;;4995107;28;20046;-84